createdAt,value
2022-10-14T00:00:00.404Z,12.03
2022-10-14T00:01:04.380Z,12.03
2022-10-14T00:02:00.460Z,12.05
2022-10-14T00:03:00.327Z,12.05
2022-10-14T00:04:00.592Z,12.05
2022-10-14T00:05:00.375Z,12.05
2022-10-14T00:06:03.219Z,12.05
2022-10-14T00:07:00.336Z,12.07
2022-10-14T00:08:00.449Z,12.07
2022-10-14T00:09:02.176Z,12.07
2022-10-14T00:10:00.520Z,12.07
2022-10-14T00:11:04.322Z,12.07
2022-10-14T00:12:00.370Z,12.08
2022-10-14T00:13:00.332Z,12.08
2022-10-14T00:14:02.031Z,12.08
2022-10-14T00:15:00.413Z,12.08
2022-10-14T00:16:01.388Z,12.08
2022-10-14T00:17:00.318Z,12.11
2022-10-14T00:18:00.323Z,12.11
2022-10-14T00:19:00.764Z,12.11
2022-10-14T00:20:00.374Z,12.11
2022-10-14T00:21:01.074Z,12.11
2022-10-14T00:22:00.343Z,12.12
2022-10-14T00:23:00.416Z,12.12
2022-10-14T00:24:00.366Z,12.12
2022-10-14T00:25:00.375Z,12.12
2022-10-14T00:26:00.385Z,12.12
2022-10-14T00:27:00.419Z,12.14
2022-10-14T00:28:00.338Z,12.14
2022-10-14T00:29:00.805Z,12.14
2022-10-14T00:30:00.469Z,12.14
2022-10-14T00:31:01.279Z,12.14
2022-10-14T00:32:00.403Z,12.16
2022-10-14T00:33:00.376Z,12.16
2022-10-14T00:34:00.641Z,12.16
2022-10-14T00:35:00.326Z,12.16
2022-10-14T00:36:02.170Z,12.16
2022-10-14T00:37:00.497Z,12.19
2022-10-14T00:38:00.349Z,12.19
2022-10-14T00:39:00.351Z,12.19
2022-10-14T00:40:00.414Z,12.19
2022-10-14T00:41:00.733Z,12.19
2022-10-14T00:42:00.361Z,12.24
2022-10-14T00:43:00.328Z,12.24
2022-10-14T00:44:10.238Z,12.24
2022-10-14T00:45:02.718Z,12.24
2022-10-14T00:46:00.313Z,12.24
2022-10-14T00:47:00.360Z,12.23
2022-10-14T00:48:00.325Z,12.23
2022-10-14T00:49:04.999Z,12.23
2022-10-14T00:50:00.712Z,12.23
2022-10-14T00:51:00.417Z,12.23
2022-10-14T00:52:02.221Z,12.22
2022-10-14T00:53:00.456Z,12.22
2022-10-14T00:54:00.367Z,12.22
2022-10-14T00:55:02.576Z,12.22
2022-10-14T00:56:00.727Z,12.22
2022-10-14T00:57:01.149Z,12.19
2022-10-14T00:58:00.344Z,12.19
2022-10-14T00:59:01.687Z,12.19
2022-10-14T01:00:03.512Z,12.19
2022-10-14T01:01:00.361Z,12.19
2022-10-14T01:02:00.527Z,12.18
2022-10-14T01:03:00.392Z,12.18
2022-10-14T01:04:00.358Z,12.18
2022-10-14T01:05:01.172Z,12.18
2022-10-14T01:06:00.335Z,12.18
2022-10-14T01:07:10.221Z,12.16
2022-10-14T01:08:09.666Z,12.16
2022-10-14T01:09:00.337Z,12.16
2022-10-14T01:10:05.957Z,12.16
2022-10-14T01:11:06.985Z,12.16
2022-10-14T01:12:27.413Z,12.11
2022-10-14T01:13:03.084Z,12.11
2022-10-14T01:14:10.217Z,12.11
2022-10-14T01:15:10.214Z,12.11
2022-10-14T01:16:10.221Z,12.11
2022-10-14T01:17:05.304Z,12.09
2022-10-14T01:18:10.258Z,12.09
2022-10-14T01:19:10.219Z,12.09
2022-10-14T01:20:10.225Z,12.09
2022-10-14T01:21:10.246Z,12.09
2022-10-14T01:22:10.216Z,12.09
2022-10-14T01:23:00.323Z,12.09
2022-10-14T01:24:10.209Z,12.09
2022-10-14T01:25:01.370Z,12.09
2022-10-14T01:26:01.356Z,12.09
2022-10-14T01:27:10.215Z,12.09
2022-10-14T01:28:03.584Z,12.09
2022-10-14T01:29:10.214Z,12.09
2022-10-14T01:30:05.619Z,12.09
2022-10-14T01:31:02.861Z,12.09
2022-10-14T01:32:04.708Z,12.10
2022-10-14T01:33:06.938Z,12.10
2022-10-14T01:34:04.063Z,12.10
2022-10-14T01:35:00.332Z,12.10
2022-10-14T01:36:10.214Z,12.10
2022-10-14T01:37:04.111Z,12.12
2022-10-14T01:38:03.230Z,12.12
2022-10-14T01:39:10.199Z,12.12
2022-10-14T01:40:04.469Z,12.12
2022-10-14T01:41:03.739Z,12.12
2022-10-14T01:42:03.730Z,12.11
2022-10-14T01:43:02.283Z,12.11
2022-10-14T01:44:02.540Z,12.11
2022-10-14T01:45:03.775Z,12.11
2022-10-14T01:46:02.494Z,12.11
2022-10-14T01:47:02.094Z,12.12
2022-10-14T01:48:02.461Z,12.12
2022-10-14T01:49:03.889Z,12.12
2022-10-14T01:50:03.406Z,12.12
2022-10-14T01:51:01.794Z,12.12
2022-10-14T01:52:05.656Z,12.13
2022-10-14T01:53:03.961Z,12.13
2022-10-14T01:54:04.922Z,12.13
2022-10-14T01:55:02.550Z,12.13
2022-10-14T01:56:01.512Z,12.13
2022-10-14T01:57:02.559Z,12.14
2022-10-14T01:58:00.643Z,12.14
2022-10-14T01:59:02.140Z,12.14
2022-10-14T02:00:01.081Z,12.14
2022-10-14T02:01:02.628Z,12.14
2022-10-14T02:02:00.418Z,12.13
2022-10-14T02:03:00.359Z,12.13
2022-10-14T02:04:00.366Z,12.13
2022-10-14T02:05:00.715Z,12.13
2022-10-14T02:06:04.745Z,12.13
2022-10-14T02:07:06.347Z,12.13
2022-10-14T02:08:08.189Z,12.13
2022-10-14T02:09:00.311Z,12.13
2022-10-14T02:10:10.220Z,12.13
2022-10-14T02:11:02.359Z,12.13
2022-10-14T02:12:10.220Z,12.12
2022-10-14T02:13:06.850Z,12.12
2022-10-14T02:14:10.213Z,12.12
2022-10-14T02:15:10.211Z,12.12
2022-10-14T02:16:10.208Z,12.12
2022-10-14T02:17:03.675Z,12.14
2022-10-14T02:18:10.207Z,12.14
2022-10-14T02:19:07.229Z,12.14
2022-10-14T02:20:07.496Z,12.14
2022-10-14T02:21:10.216Z,12.14
2022-10-14T02:22:00.308Z,12.14
2022-10-14T02:23:05.508Z,12.14
2022-10-14T02:24:04.124Z,12.14
2022-10-14T02:25:05.811Z,12.14
2022-10-14T02:26:00.948Z,12.14
2022-10-14T02:27:02.905Z,12.15
2022-10-14T02:28:01.973Z,12.15
2022-10-14T02:29:01.215Z,12.15
2022-10-14T02:30:00.563Z,12.15
2022-10-14T02:31:03.606Z,12.15
2022-10-14T02:32:01.847Z,12.14
2022-10-14T02:33:00.845Z,12.14
2022-10-14T02:34:02.571Z,12.14
2022-10-14T02:35:00.947Z,12.14
2022-10-14T02:36:01.366Z,12.14
2022-10-14T02:37:00.586Z,12.15
2022-10-14T02:38:01.453Z,12.15
2022-10-14T02:39:00.624Z,12.15
2022-10-14T02:40:06.172Z,12.15
2022-10-14T02:41:03.337Z,12.15
2022-10-14T02:42:00.486Z,12.14
2022-10-14T02:43:00.442Z,12.14
2022-10-14T02:44:00.519Z,12.14
2022-10-14T02:45:00.630Z,12.14
2022-10-14T02:46:01.868Z,12.14
2022-10-14T02:47:00.347Z,12.13
2022-10-14T02:48:00.313Z,12.13
2022-10-14T02:49:00.323Z,12.13
2022-10-14T02:50:00.522Z,12.13
2022-10-14T02:51:00.395Z,12.13
2022-10-14T02:52:01.480Z,12.11
2022-10-14T02:53:00.433Z,12.11
2022-10-14T02:54:00.319Z,12.11
2022-10-14T02:55:00.317Z,12.11
2022-10-14T02:56:00.427Z,12.11
2022-10-14T02:57:00.318Z,12.10
2022-10-14T02:58:00.318Z,12.10
2022-10-14T02:59:00.361Z,12.10
2022-10-14T03:00:00.413Z,12.10
2022-10-14T03:01:00.317Z,12.10
2022-10-14T03:02:00.452Z,12.11
2022-10-14T03:03:00.329Z,12.11
2022-10-14T03:04:00.306Z,12.11
2022-10-14T03:05:00.333Z,12.11
2022-10-14T03:06:00.364Z,12.11
2022-10-14T03:07:00.361Z,12.12
2022-10-14T03:08:00.401Z,12.12
2022-10-14T03:09:00.526Z,12.12
2022-10-14T03:10:00.325Z,12.12
2022-10-14T03:11:00.367Z,12.12
2022-10-14T03:12:00.312Z,12.13
2022-10-14T03:13:00.319Z,12.13
2022-10-14T03:14:00.317Z,12.13
2022-10-14T03:15:00.354Z,12.13
2022-10-14T03:16:00.311Z,12.13
2022-10-14T03:17:00.353Z,12.18
2022-10-14T03:18:00.339Z,12.18
2022-10-14T03:19:00.484Z,12.18
2022-10-14T03:20:00.325Z,12.18
2022-10-14T03:21:00.358Z,12.18
2022-10-14T03:22:00.373Z,12.19
2022-10-14T03:23:00.319Z,12.19
2022-10-14T03:24:00.343Z,12.19
2022-10-14T03:25:00.351Z,12.19
2022-10-14T03:26:00.298Z,12.19
2022-10-14T03:27:00.478Z,12.18
2022-10-14T03:28:00.324Z,12.18
2022-10-14T03:29:00.451Z,12.18
2022-10-14T03:30:00.402Z,12.18
2022-10-14T03:31:00.323Z,12.18
2022-10-14T03:32:00.406Z,12.18
2022-10-14T03:33:00.451Z,12.18
2022-10-14T03:34:00.295Z,12.18
2022-10-14T03:35:00.318Z,12.18
2022-10-14T03:36:00.303Z,12.18
2022-10-14T03:37:00.299Z,12.18
2022-10-14T03:38:00.336Z,12.18
2022-10-14T03:39:00.367Z,12.18
2022-10-14T03:40:00.379Z,12.18
2022-10-14T03:41:00.378Z,12.18
2022-10-14T03:42:00.307Z,12.20
2022-10-14T03:43:00.469Z,12.20
2022-10-14T03:44:00.432Z,12.20
2022-10-14T03:45:00.549Z,12.20
2022-10-14T03:46:00.325Z,12.20
2022-10-14T03:47:00.308Z,12.17
2022-10-14T03:48:00.332Z,12.17
2022-10-14T03:49:00.291Z,12.17
2022-10-14T03:50:00.309Z,12.17
2022-10-14T03:51:00.310Z,12.17
2022-10-14T03:52:00.302Z,12.20
2022-10-14T03:53:00.339Z,12.20
2022-10-14T03:54:00.347Z,12.20
2022-10-14T03:55:00.464Z,12.20
2022-10-14T03:56:00.325Z,12.20
2022-10-14T03:57:00.332Z,12.20
2022-10-14T03:58:00.398Z,12.20
2022-10-14T03:59:00.354Z,12.20
2022-10-14T04:00:00.504Z,12.20
2022-10-14T04:01:00.298Z,12.20
2022-10-14T04:02:00.380Z,12.23
2022-10-14T04:03:00.368Z,12.23
2022-10-14T04:04:00.314Z,12.23
2022-10-14T04:05:01.167Z,12.23
2022-10-14T04:06:00.351Z,12.23
2022-10-14T04:07:00.317Z,12.23
2022-10-14T04:08:00.358Z,12.23
2022-10-14T04:09:00.310Z,12.23
2022-10-14T04:10:00.515Z,12.23
2022-10-14T04:11:00.404Z,12.23
2022-10-14T04:12:00.324Z,12.23
2022-10-14T04:13:00.313Z,12.23
2022-10-14T04:14:00.298Z,12.23
2022-10-14T04:15:00.305Z,12.23
2022-10-14T04:16:04.017Z,12.23
2022-10-14T04:17:00.391Z,12.23
2022-10-14T04:18:00.346Z,12.23
2022-10-14T04:19:00.349Z,12.23
2022-10-14T04:20:00.425Z,12.23
2022-10-14T04:21:01.534Z,12.23
2022-10-14T04:22:00.524Z,12.21
2022-10-14T04:23:00.319Z,12.21
2022-10-14T04:24:03.679Z,12.21
2022-10-14T04:25:00.307Z,12.21
2022-10-14T04:26:04.637Z,12.21
2022-10-14T04:27:00.318Z,12.19
2022-10-14T04:28:00.326Z,12.19
2022-10-14T04:29:00.427Z,12.19
2022-10-14T04:30:00.332Z,12.19
2022-10-14T04:31:00.820Z,12.19
2022-10-14T04:32:00.336Z,12.17
2022-10-14T04:33:00.334Z,12.17
2022-10-14T04:34:00.326Z,12.17
2022-10-14T04:35:00.308Z,12.17
2022-10-14T04:36:01.436Z,12.17
2022-10-14T04:37:00.530Z,12.15
2022-10-14T04:38:00.346Z,12.15
2022-10-14T04:39:00.361Z,12.15
2022-10-14T04:40:00.312Z,12.15
2022-10-14T04:41:00.555Z,12.15
2022-10-14T04:42:00.317Z,12.13
2022-10-14T04:43:00.310Z,12.13
2022-10-14T04:44:00.371Z,12.13
2022-10-14T04:45:00.309Z,12.13
2022-10-14T04:46:00.431Z,12.13
2022-10-14T04:47:00.309Z,12.11
2022-10-14T04:48:00.400Z,12.11
2022-10-14T04:49:00.309Z,12.11
2022-10-14T04:50:00.391Z,12.11
2022-10-14T04:51:00.325Z,12.11
2022-10-14T04:52:00.385Z,12.09
2022-10-14T04:53:00.381Z,12.09
2022-10-14T04:54:00.318Z,12.09
2022-10-14T04:55:00.434Z,12.09
2022-10-14T04:56:00.352Z,12.09
2022-10-14T04:57:00.340Z,12.07
2022-10-14T04:58:00.322Z,12.07
2022-10-14T04:59:00.461Z,12.07
2022-10-14T05:00:00.562Z,12.07
2022-10-14T05:01:00.324Z,12.07
2022-10-14T05:02:00.364Z,12.06
2022-10-14T05:03:00.372Z,12.06
2022-10-14T05:04:00.376Z,12.06
2022-10-14T05:05:00.330Z,12.06
2022-10-14T05:06:00.356Z,12.06
2022-10-14T05:07:00.343Z,12.05
2022-10-14T05:08:00.320Z,12.05
2022-10-14T05:09:00.319Z,12.05
2022-10-14T05:10:00.320Z,12.05
2022-10-14T05:11:00.480Z,12.05
2022-10-14T05:12:00.313Z,12.04
2022-10-14T05:13:00.656Z,12.04
2022-10-14T05:14:00.339Z,12.04
2022-10-14T05:15:00.368Z,12.04
2022-10-14T05:16:00.788Z,12.04
2022-10-14T05:17:00.443Z,12.05
2022-10-14T05:18:00.358Z,12.05
2022-10-14T05:19:00.302Z,12.05
2022-10-14T05:20:00.312Z,12.05
2022-10-14T05:21:00.300Z,12.05
2022-10-14T05:22:00.312Z,12.02
2022-10-14T05:23:00.308Z,12.02
2022-10-14T05:24:00.306Z,12.02
2022-10-14T05:25:00.306Z,12.02
2022-10-14T05:26:00.335Z,12.02
2022-10-14T05:27:00.378Z,11.98
2022-10-14T05:28:00.360Z,11.98
2022-10-14T05:29:00.437Z,11.98
2022-10-14T05:30:00.328Z,11.98
2022-10-14T05:31:00.323Z,11.98
2022-10-14T05:32:00.301Z,11.99
2022-10-14T05:33:00.391Z,11.99
2022-10-14T05:34:00.541Z,11.99
2022-10-14T05:35:00.410Z,11.99
2022-10-14T05:36:00.401Z,11.99
2022-10-14T05:37:00.829Z,11.97
2022-10-14T05:38:04.071Z,11.97
2022-10-14T05:39:00.477Z,11.97
2022-10-14T05:40:01.005Z,11.97
2022-10-14T05:41:01.000Z,11.97
2022-10-14T05:42:00.503Z,11.94
2022-10-14T05:43:00.333Z,11.94
2022-10-14T05:44:00.352Z,11.94
2022-10-14T05:45:00.310Z,11.94
2022-10-14T05:46:00.351Z,11.94
2022-10-14T05:47:00.625Z,11.93
2022-10-14T05:48:00.339Z,11.93
2022-10-14T05:49:00.301Z,11.93
2022-10-14T05:50:00.301Z,11.93
2022-10-14T05:51:00.331Z,11.93
2022-10-14T05:52:00.309Z,11.93
2022-10-14T05:53:00.315Z,11.93
2022-10-14T05:54:00.492Z,11.93
2022-10-14T05:55:00.553Z,11.93
2022-10-14T05:56:02.678Z,11.93
2022-10-14T05:57:00.358Z,11.91
2022-10-14T05:58:00.460Z,11.91
2022-10-14T05:59:00.298Z,11.91
2022-10-14T06:00:00.347Z,11.91
2022-10-14T06:01:01.125Z,11.91
2022-10-14T06:02:00.713Z,11.94
2022-10-14T06:03:00.462Z,11.94
2022-10-14T06:04:00.358Z,11.94
2022-10-14T06:05:00.347Z,11.94
2022-10-14T06:06:00.417Z,11.94
2022-10-14T06:07:00.309Z,11.97
2022-10-14T06:08:00.341Z,11.97
2022-10-14T06:09:00.323Z,11.97
2022-10-14T06:10:00.301Z,11.97
2022-10-14T06:11:02.058Z,11.97
2022-10-14T06:12:00.403Z,11.98
2022-10-14T06:13:00.332Z,11.98
2022-10-14T06:14:00.302Z,11.98
2022-10-14T06:15:00.290Z,11.98
2022-10-14T06:16:01.951Z,11.98
2022-10-14T06:17:00.320Z,12.03
2022-10-14T06:18:00.302Z,12.03
2022-10-14T06:19:00.858Z,12.03
2022-10-14T06:20:00.337Z,12.03
2022-10-14T06:21:00.444Z,12.03
2022-10-14T06:22:00.378Z,12.05
2022-10-14T06:23:00.923Z,12.05
2022-10-14T06:24:00.306Z,12.05
2022-10-14T06:25:04.067Z,12.05
2022-10-14T06:26:04.112Z,12.05
2022-10-14T06:27:00.401Z,12.09
2022-10-14T06:28:02.775Z,12.09
2022-10-14T06:29:00.449Z,12.09
2022-10-14T06:30:00.365Z,12.09
2022-10-14T06:31:00.432Z,12.09
2022-10-14T06:32:00.292Z,12.14
2022-10-14T06:33:00.331Z,12.14
2022-10-14T06:34:03.434Z,12.14
2022-10-14T06:35:00.364Z,12.14
2022-10-14T06:36:01.604Z,12.14
2022-10-14T06:37:02.353Z,12.19
2022-10-14T06:38:00.301Z,12.19
2022-10-14T06:39:00.433Z,12.19
2022-10-14T06:40:00.403Z,12.19
2022-10-14T06:41:00.338Z,12.19
2022-10-14T06:42:01.159Z,12.23
2022-10-14T06:43:00.312Z,12.23
2022-10-14T06:44:00.305Z,12.23
2022-10-14T06:45:00.326Z,12.23
2022-10-14T06:46:00.958Z,12.23
2022-10-14T06:47:00.305Z,12.27
2022-10-14T06:48:00.361Z,12.27
2022-10-14T06:49:00.632Z,12.27
2022-10-14T06:50:00.303Z,12.27
2022-10-14T06:51:01.040Z,12.27
2022-10-14T06:52:00.305Z,12.28
2022-10-14T06:53:00.337Z,12.28
2022-10-14T06:54:00.397Z,12.28
2022-10-14T06:55:00.421Z,12.28
2022-10-14T06:56:01.808Z,12.28
2022-10-14T06:57:00.337Z,12.30
2022-10-14T06:58:00.372Z,12.30
2022-10-14T06:59:00.289Z,12.30
2022-10-14T07:00:00.593Z,12.30
2022-10-14T07:01:01.945Z,12.30
2022-10-14T07:02:00.417Z,12.34
2022-10-14T07:03:00.310Z,12.34
2022-10-14T07:04:00.323Z,12.34
2022-10-14T07:05:00.400Z,12.34
2022-10-14T07:06:01.981Z,12.34
2022-10-14T07:07:00.297Z,12.38
2022-10-14T07:09:00.292Z,12.38
2022-10-14T07:10:00.310Z,12.38
2022-10-14T07:11:00.388Z,12.38
2022-10-14T07:12:00.389Z,12.43
2022-10-14T07:13:00.385Z,12.43
2022-10-14T07:14:00.296Z,12.43
2022-10-14T07:15:00.437Z,12.43
2022-10-14T07:16:00.356Z,12.43
2022-10-14T07:17:00.383Z,12.54
2022-10-14T07:18:00.372Z,12.54
2022-10-14T07:19:00.306Z,12.54
2022-10-14T07:20:00.333Z,12.54
2022-10-14T07:21:01.064Z,12.54
2022-10-14T07:22:00.329Z,12.59
2022-10-14T07:23:00.423Z,12.59
2022-10-14T07:24:00.382Z,12.59
2022-10-14T07:25:00.401Z,12.59
2022-10-14T07:26:00.423Z,12.59
2022-10-14T07:27:00.603Z,12.62
2022-10-14T07:28:00.322Z,12.62
2022-10-14T07:29:02.850Z,12.62
2022-10-14T07:31:01.489Z,12.62
2022-10-14T07:32:00.330Z,12.65
2022-10-14T07:33:00.349Z,12.65
2022-10-14T07:34:00.489Z,12.65
2022-10-14T07:35:00.352Z,12.65
2022-10-14T07:36:00.979Z,12.65
2022-10-14T07:37:00.411Z,12.66
2022-10-14T07:38:00.327Z,12.66
2022-10-14T07:39:00.514Z,12.66
2022-10-14T07:40:00.307Z,12.66
2022-10-14T07:41:02.092Z,12.66
2022-10-14T07:42:00.356Z,12.63
2022-10-14T07:43:00.330Z,12.63
2022-10-14T07:44:01.856Z,12.63
2022-10-14T07:45:00.480Z,12.63
2022-10-14T07:46:02.034Z,12.63
2022-10-14T07:47:00.315Z,12.66
2022-10-14T07:48:00.867Z,12.66
2022-10-14T07:49:03.033Z,12.66
2022-10-14T07:50:00.399Z,12.66
2022-10-14T07:51:00.367Z,12.66
2022-10-14T07:52:00.307Z,12.73
2022-10-14T07:53:01.570Z,12.73
2022-10-14T07:54:01.082Z,12.73
2022-10-14T07:55:00.691Z,12.73
2022-10-14T07:56:00.471Z,12.73
2022-10-14T07:57:00.300Z,12.79
2022-10-14T07:58:00.296Z,12.79
2022-10-14T07:59:00.379Z,12.79
2022-10-14T08:00:00.480Z,12.79
2022-10-14T08:01:00.302Z,12.79
2022-10-14T08:02:00.456Z,12.87
2022-10-14T08:03:00.325Z,12.87
2022-10-14T08:04:00.765Z,12.87
2022-10-14T08:05:18.935Z,12.87
2022-10-14T08:06:01.590Z,12.87
2022-10-14T08:07:00.303Z,12.95
2022-10-14T08:08:00.318Z,12.95
2022-10-14T08:09:00.391Z,12.95
2022-10-14T08:10:00.375Z,12.95
2022-10-14T08:11:00.345Z,12.95
2022-10-14T08:12:00.303Z,13.04
2022-10-14T08:13:00.312Z,13.04
2022-10-14T08:14:00.683Z,13.04
2022-10-14T08:15:00.316Z,13.04
2022-10-14T08:16:00.779Z,13.04
2022-10-14T08:17:00.315Z,13.09
2022-10-14T08:18:00.303Z,13.09
2022-10-14T08:19:07.577Z,13.09
2022-10-14T08:20:00.344Z,13.09
2022-10-14T08:21:00.292Z,13.09
2022-10-14T08:22:00.348Z,13.13
2022-10-14T08:23:00.374Z,13.13
2022-10-14T08:24:00.328Z,13.13
2022-10-14T08:25:00.422Z,13.13
2022-10-14T08:26:00.449Z,13.13
2022-10-14T08:27:00.380Z,13.17
2022-10-14T08:28:00.314Z,13.17
2022-10-14T08:29:01.252Z,13.17
2022-10-14T08:30:00.320Z,13.17
2022-10-14T08:31:00.312Z,13.17
2022-10-14T08:32:00.321Z,13.19
2022-10-14T08:33:00.398Z,13.19
2022-10-14T08:34:00.358Z,13.19
2022-10-14T08:35:00.326Z,13.19
2022-10-14T08:36:00.311Z,13.19
2022-10-14T08:37:00.834Z,13.21
2022-10-14T08:38:00.944Z,13.21
2022-10-14T08:39:00.413Z,13.21
2022-10-14T08:40:00.302Z,13.21
2022-10-14T08:41:10.194Z,13.21
2022-10-14T08:42:10.201Z,13.30
2022-10-14T08:43:04.888Z,13.30
2022-10-14T08:44:10.193Z,13.30
2022-10-14T08:45:02.475Z,13.30
2022-10-14T08:46:10.218Z,13.30
2022-10-14T08:47:02.453Z,13.36
2022-10-14T08:48:02.873Z,13.36
2022-10-14T08:49:05.238Z,13.36
2022-10-14T08:50:01.299Z,13.36
2022-10-14T08:51:06.493Z,13.36
2022-10-14T08:52:02.481Z,13.40
2022-10-14T08:53:08.817Z,13.40
2022-10-14T08:54:04.835Z,13.40
2022-10-14T08:55:02.579Z,13.40
2022-10-14T08:56:01.263Z,13.40
2022-10-14T08:57:01.647Z,13.43
2022-10-14T08:58:10.418Z,13.43
2022-10-14T08:59:04.076Z,13.43
2022-10-14T09:00:00.850Z,13.43
2022-10-14T09:01:02.137Z,13.43
2022-10-14T09:02:02.938Z,13.49
2022-10-14T09:03:04.180Z,13.49
2022-10-14T09:04:03.561Z,13.49
2022-10-14T09:05:00.566Z,13.49
2022-10-14T09:06:01.879Z,13.49
2022-10-14T09:07:00.969Z,13.58
2022-10-14T09:08:00.672Z,13.58
2022-10-14T09:09:07.631Z,13.58
2022-10-14T09:10:04.817Z,13.58
2022-10-14T09:11:00.632Z,13.58
2022-10-14T09:12:03.992Z,13.65
2022-10-14T09:13:10.211Z,13.65
2022-10-14T09:14:01.562Z,13.65
2022-10-14T09:15:05.396Z,13.65
2022-10-14T09:16:03.113Z,13.65
2022-10-14T09:17:05.442Z,13.73
2022-10-14T09:19:01.769Z,13.73
2022-10-14T09:20:10.230Z,13.73
2022-10-14T09:21:01.247Z,13.73
2022-10-14T09:22:00.586Z,13.78
2022-10-14T09:23:01.321Z,13.78
2022-10-14T09:24:10.190Z,13.78
2022-10-14T09:25:00.350Z,13.78
2022-10-14T09:26:04.266Z,13.78
2022-10-14T09:27:03.200Z,13.82
2022-10-14T09:28:00.634Z,13.82
2022-10-14T09:29:01.059Z,13.82
2022-10-14T09:30:01.069Z,13.82
2022-10-14T09:31:00.360Z,13.82
2022-10-14T09:32:02.396Z,13.86
2022-10-14T09:33:00.437Z,13.86
2022-10-14T09:34:00.330Z,13.86
2022-10-14T09:35:00.988Z,13.86
2022-10-14T09:36:00.490Z,13.86
2022-10-14T09:37:10.188Z,13.88
2022-10-14T09:38:00.389Z,13.88
2022-10-14T09:39:03.887Z,13.88
2022-10-14T09:40:00.281Z,13.88
2022-10-14T09:41:00.372Z,13.88
2022-10-14T09:42:00.338Z,13.92
2022-10-14T09:43:07.770Z,13.92
2022-10-14T09:44:10.244Z,13.92
2022-10-14T09:46:04.675Z,13.92
2022-10-14T09:47:02.241Z,13.97
2022-10-14T09:48:02.764Z,13.97
2022-10-14T09:49:01.067Z,13.97
2022-10-14T09:50:00.401Z,13.97
2022-10-14T09:51:02.105Z,13.97
2022-10-14T09:52:00.434Z,14.00
2022-10-14T09:53:02.490Z,14.00
2022-10-14T09:54:02.033Z,14.00
2022-10-14T09:55:00.568Z,14.00
2022-10-14T09:56:02.174Z,14.00
2022-10-14T09:57:03.997Z,14.03
2022-10-14T09:58:04.936Z,14.03
2022-10-14T09:59:00.884Z,14.03
2022-10-14T10:00:02.546Z,14.03
2022-10-14T10:01:01.004Z,14.03
2022-10-14T10:02:01.104Z,14.08
2022-10-14T10:03:00.351Z,14.08
2022-10-14T10:04:10.206Z,14.08
2022-10-14T10:05:10.180Z,14.08
2022-10-14T10:06:09.086Z,14.08
2022-10-14T10:07:01.952Z,14.14
2022-10-14T10:08:10.200Z,14.14
2022-10-14T10:09:00.338Z,14.14
2022-10-14T10:10:01.349Z,14.14
2022-10-14T10:11:03.778Z,14.14
2022-10-14T10:12:10.211Z,14.20
2022-10-14T10:13:00.614Z,14.20
2022-10-14T10:14:10.208Z,14.20
2022-10-14T10:15:04.352Z,14.20
2022-10-14T10:16:02.396Z,14.20
2022-10-14T10:17:07.746Z,14.29
2022-10-14T10:18:00.305Z,14.29
2022-10-14T10:19:10.185Z,14.29
2022-10-14T10:20:08.047Z,14.29
2022-10-14T10:21:02.030Z,14.29
2022-10-14T10:22:10.232Z,14.36
2022-10-14T10:23:10.203Z,14.36
2022-10-14T10:24:01.762Z,14.36
2022-10-14T10:25:00.332Z,14.36
2022-10-14T10:26:10.203Z,14.36
2022-10-14T10:27:08.147Z,14.48
2022-10-14T10:28:00.321Z,14.48
2022-10-14T10:29:01.518Z,14.48
2022-10-14T10:30:10.220Z,14.48
2022-10-14T10:31:07.201Z,14.48
2022-10-14T10:32:00.323Z,14.60
2022-10-14T10:33:10.196Z,14.60
2022-10-14T10:34:01.322Z,14.60
2022-10-14T10:35:06.077Z,14.60
2022-10-14T10:36:03.597Z,14.60
2022-10-14T10:37:04.451Z,14.67
2022-10-14T10:38:10.201Z,14.67
2022-10-14T10:39:00.327Z,14.67
2022-10-14T10:40:10.293Z,14.67
2022-10-14T10:41:03.573Z,14.67
2022-10-14T10:42:08.347Z,14.74
2022-10-14T10:43:01.310Z,14.74
2022-10-14T10:44:10.287Z,14.74
2022-10-14T10:45:05.816Z,14.74
2022-10-14T10:46:10.245Z,14.74
2022-10-14T10:47:07.692Z,14.80
2022-10-14T10:48:05.134Z,14.80
2022-10-14T10:49:08.963Z,14.80
2022-10-14T10:50:01.544Z,14.80
2022-10-14T10:51:04.372Z,14.80
2022-10-14T10:52:10.258Z,14.83
2022-10-14T10:53:00.344Z,14.83
2022-10-14T10:54:01.363Z,14.83
2022-10-14T10:55:07.935Z,14.83
2022-10-14T10:56:00.351Z,14.83
2022-10-14T10:57:06.124Z,14.86
2022-10-14T10:58:02.642Z,14.86
2022-10-14T10:59:08.274Z,14.86
2022-10-14T11:00:07.694Z,14.86
2022-10-14T11:01:04.364Z,14.86
2022-10-14T11:02:10.243Z,15.00
2022-10-14T11:03:00.345Z,15.00
2022-10-14T11:04:09.508Z,15.00
2022-10-14T11:05:10.237Z,15.00
2022-10-14T11:06:00.307Z,15.00
2022-10-14T11:07:08.235Z,14.90
2022-10-14T11:08:07.690Z,14.90
2022-10-14T11:09:04.183Z,14.90
2022-10-14T11:10:10.218Z,14.90
2022-10-14T11:11:11.615Z,14.90
2022-10-14T11:12:10.209Z,15.02
2022-10-14T11:13:04.938Z,15.02
2022-10-14T11:14:03.609Z,15.02
2022-10-14T11:15:10.277Z,15.02
2022-10-14T11:16:10.236Z,15.02
2022-10-14T11:17:05.737Z,15.06
2022-10-14T11:18:10.215Z,15.06
2022-10-14T11:19:00.333Z,15.06
2022-10-14T11:20:07.856Z,15.06
2022-10-14T11:21:10.268Z,15.06
2022-10-14T11:22:01.338Z,15.12
2022-10-14T11:23:10.220Z,15.12
2022-10-14T11:24:00.347Z,15.12
2022-10-14T11:25:07.274Z,15.12
2022-10-14T11:26:05.833Z,15.12
2022-10-14T11:27:01.346Z,15.07
2022-10-14T11:28:10.209Z,15.07
2022-10-14T11:29:01.571Z,15.07
2022-10-14T11:30:10.231Z,15.07
2022-10-14T11:31:00.292Z,15.07
2022-10-14T11:32:01.315Z,15.03
2022-10-14T11:33:10.191Z,15.03
2022-10-14T11:34:10.185Z,15.03
2022-10-14T11:35:10.203Z,15.03
2022-10-14T11:36:10.209Z,15.03
2022-10-14T11:37:10.197Z,14.98
2022-10-14T11:38:10.190Z,14.98
2022-10-14T11:39:10.189Z,14.98
2022-10-14T11:40:02.435Z,14.98
2022-10-14T11:41:03.615Z,14.98
2022-10-14T11:42:01.327Z,14.99
2022-10-14T11:43:10.194Z,14.99
2022-10-14T11:44:07.800Z,14.99
2022-10-14T11:45:10.219Z,14.99
2022-10-14T11:46:03.896Z,14.99
2022-10-14T11:47:02.906Z,14.93
2022-10-14T11:48:09.287Z,14.93
2022-10-14T11:49:10.227Z,14.93
2022-10-14T11:50:10.235Z,14.93
2022-10-14T11:51:06.337Z,14.93
2022-10-14T11:52:03.207Z,14.91
2022-10-14T11:53:08.130Z,14.91
2022-10-14T11:54:10.188Z,14.91
2022-10-14T11:55:13.698Z,14.91
2022-10-14T11:56:03.741Z,14.91
2022-10-14T11:57:03.797Z,14.89
2022-10-14T11:58:10.215Z,14.89
2022-10-14T11:59:02.702Z,14.89
2022-10-14T12:00:03.950Z,14.89
2022-10-14T12:01:02.347Z,14.89
2022-10-14T12:02:03.076Z,14.95
2022-10-14T12:03:05.292Z,14.95
2022-10-14T12:04:03.567Z,14.95
2022-10-14T12:05:00.283Z,14.95
2022-10-14T12:06:03.635Z,14.95
2022-10-14T12:07:04.649Z,14.98
2022-10-14T12:08:03.545Z,14.98
2022-10-14T12:09:00.325Z,14.98
2022-10-14T12:10:02.952Z,14.98
2022-10-14T12:11:05.066Z,14.98
2022-10-14T12:12:02.361Z,14.93
2022-10-14T12:13:00.691Z,14.93
2022-10-14T12:14:10.184Z,14.93
2022-10-14T12:15:04.691Z,14.93
2022-10-14T12:16:02.335Z,14.93
2022-10-14T12:17:05.289Z,14.90
2022-10-14T12:18:00.555Z,14.90
2022-10-14T12:19:00.649Z,14.90
2022-10-14T12:20:06.621Z,14.90
2022-10-14T12:21:10.217Z,14.90
2022-10-14T12:22:00.292Z,14.86
2022-10-14T12:23:02.096Z,14.86
2022-10-14T12:24:05.113Z,14.86
2022-10-14T12:25:02.427Z,14.86
2022-10-14T12:26:10.211Z,14.86
2022-10-14T12:27:02.195Z,14.81
2022-10-14T12:28:00.682Z,14.81
2022-10-14T12:29:03.743Z,14.81
2022-10-14T12:30:00.355Z,14.81
2022-10-14T12:31:10.213Z,14.81
2022-10-14T12:32:03.609Z,14.60
2022-10-14T12:33:09.022Z,14.60
2022-10-14T12:34:10.192Z,14.60
2022-10-14T12:35:01.010Z,14.60
2022-10-14T12:36:00.653Z,14.60
2022-10-14T12:37:10.208Z,14.54
2022-10-14T12:38:02.673Z,14.54
2022-10-14T12:39:10.275Z,14.54
2022-10-14T12:40:01.322Z,14.54
2022-10-14T12:41:10.191Z,14.54
2022-10-14T12:42:02.043Z,14.57
2022-10-14T12:43:02.819Z,14.57
2022-10-14T12:44:02.508Z,14.57
2022-10-14T12:45:10.216Z,14.57
2022-10-14T12:46:00.401Z,14.57
2022-10-14T12:47:01.585Z,14.67
2022-10-14T12:48:01.731Z,14.67
2022-10-14T12:49:00.347Z,14.67
2022-10-14T12:50:02.219Z,14.67
2022-10-14T12:51:10.197Z,14.67
2022-10-14T12:52:02.497Z,14.67
2022-10-14T12:53:01.995Z,14.67
2022-10-14T12:54:10.186Z,14.67
2022-10-14T12:55:01.359Z,14.67
2022-10-14T12:56:01.566Z,14.67